sensor_id;sensor_type;location;lat;lon;timestamp;temperature;humidity
31759;DHT22;36334;51.366;0.020;2022-09-02T00:02:00;17.90;99.90
31759;DHT22;36334;51.366;0.020;2022-09-02T00:04:46;17.90;99.90
31759;DHT22;36334;51.366;0.020;2022-09-02T00:07:32;17.90;99.90
31759;DHT22;36334;51.366;0.020;2022-09-02T00:10:19;17.90;99.90
31759;DHT22;36334;51.366;0.020;2022-09-02T00:13:06;17.80;99.90
31759;DHT22;36334;51.366;0.020;2022-09-02T00:15:54;17.80;99.90
31759;DHT22;36334;51.366;0.020;2022-09-02T00:18:41;17.80;99.90
31759;DHT22;36334;51.366;0.020;2022-09-02T00:21:32;17.80;99.90
31759;DHT22;36334;51.366;0.020;2022-09-02T00:24:20;17.80;99.90
31759;DHT22;36334;51.366;0.020;2022-09-02T00:27:09;17.80;99.90
31759;DHT22;36334;51.366;0.020;2022-09-02T00:29:55;17.80;99.90
31759;DHT22;36334;51.366;0.020;2022-09-02T00:32:41;17.80;99.90
31759;DHT22;36334;51.366;0.020;2022-09-02T00:35:27;17.80;99.90
31759;DHT22;36334;51.366;0.020;2022-09-02T00:38:15;17.80;99.90
31759;DHT22;36334;51.366;0.020;2022-09-02T00:41:04;17.80;99.90
31759;DHT22;36334;51.366;0.020;2022-09-02T00:44:01;17.70;99.90
31759;DHT22;36334;51.366;0.020;2022-09-02T00:46:48;17.70;99.90
31759;DHT22;36334;51.366;0.020;2022-09-02T00:49:41;17.70;99.90
31759;DHT22;36334;51.366;0.020;2022-09-02T00:52:32;17.70;99.90
31759;DHT22;36334;51.366;0.020;2022-09-02T00:55:29;17.70;99.90
31759;DHT22;36334;51.366;0.020;2022-09-02T00:58:21;17.70;99.90
31759;DHT22;36334;51.366;0.020;2022-09-02T01:01:10;17.70;99.90
31759;DHT22;36334;51.366;0.020;2022-09-02T01:03:57;17.70;99.90
31759;DHT22;36334;51.366;0.020;2022-09-02T01:06:44;17.60;99.90
31759;DHT22;36334;51.366;0.020;2022-09-02T01:09:30;17.60;99.90
31759;DHT22;36334;51.366;0.020;2022-09-02T01:12:18;17.60;99.90
31759;DHT22;36334;51.366;0.020;2022-09-02T01:15:07;17.60;99.90
31759;DHT22;36334;51.366;0.020;2022-09-02T01:17:54;17.60;99.90
31759;DHT22;36334;51.366;0.020;2022-09-02T01:20:40;17.60;99.90
31759;DHT22;36334;51.366;0.020;2022-09-02T01:23:28;17.50;99.90
31759;DHT22;36334;51.366;0.020;2022-09-02T01:26:20;17.50;99.90
31759;DHT22;36334;51.366;0.020;2022-09-02T01:29:07;17.50;99.90
31759;DHT22;36334;51.366;0.020;2022-09-02T01:31:53;17.50;99.90
31759;DHT22;36334;51.366;0.020;2022-09-02T01:34:40;17.50;99.90
31759;DHT22;36334;51.366;0.020;2022-09-02T01:37:26;17.50;99.90
31759;DHT22;36334;51.366;0.020;2022-09-02T01:40:15;17.50;99.90
31759;DHT22;36334;51.366;0.020;2022-09-02T01:43:12;17.50;99.90
31759;DHT22;36334;51.366;0.020;2022-09-02T01:45:59;17.50;99.90
31759;DHT22;36334;51.366;0.020;2022-09-02T01:48:49;17.50;99.90
31759;DHT22;36334;51.366;0.020;2022-09-02T01:51:36;17.50;99.90
31759;DHT22;36334;51.366;0.020;2022-09-02T01:54:22;17.50;99.90
31759;DHT22;36334;51.366;0.020;2022-09-02T01:57:10;17.50;99.90
31759;DHT22;36334;51.366;0.020;2022-09-02T01:59:56;17.50;99.90
31759;DHT22;36334;51.366;0.020;2022-09-02T02:02:44;17.50;99.90
31759;DHT22;36334;51.366;0.020;2022-09-02T02:05:31;17.40;99.90
31759;DHT22;36334;51.366;0.020;2022-09-02T02:08:19;17.40;99.90
31759;DHT22;36334;51.366;0.020;2022-09-02T02:11:05;17.50;99.90
31759;DHT22;36334;51.366;0.020;2022-09-02T02:13:54;17.40;99.90
31759;DHT22;36334;51.366;0.020;2022-09-02T02:16:41;17.40;99.90
31759;DHT22;36334;51.366;0.020;2022-09-02T02:19:27;17.40;99.90
31759;DHT22;36334;51.366;0.020;2022-09-02T02:22:13;17.40;99.90
31759;DHT22;36334;51.366;0.020;2022-09-02T02:25:00;17.40;99.90
31759;DHT22;36334;51.366;0.020;2022-09-02T02:27:49;17.40;99.90
31759;DHT22;36334;51.366;0.020;2022-09-02T02:30:39;17.40;99.90
31759;DHT22;36334;51.366;0.020;2022-09-02T02:33:28;17.30;99.90
31759;DHT22;36334;51.366;0.020;2022-09-02T02:36:21;17.40;99.90
31759;DHT22;36334;51.366;0.020;2022-09-02T02:39:09;17.40;99.90
31759;DHT22;36334;51.366;0.020;2022-09-02T02:41:55;17.30;99.90
31759;DHT22;36334;51.366;0.020;2022-09-02T02:44:43;17.40;99.90
31759;DHT22;36334;51.366;0.020;2022-09-02T02:47:30;17.40;99.90
31759;DHT22;36334;51.366;0.020;2022-09-02T02:50:18;17.40;99.90
31759;DHT22;36334;51.366;0.020;2022-09-02T02:53:06;17.30;99.90
31759;DHT22;36334;51.366;0.020;2022-09-02T02:55:52;17.30;99.90
31759;DHT22;36334;51.366;0.020;2022-09-02T02:58:39;17.30;99.90
31759;DHT22;36334;51.366;0.020;2022-09-02T03:01:26;17.30;99.90
31759;DHT22;36334;51.366;0.020;2022-09-02T03:04:13;17.30;99.90
31759;DHT22;36334;51.366;0.020;2022-09-02T03:06:59;17.30;99.90
31759;DHT22;36334;51.366;0.020;2022-09-02T03:09:46;17.30;99.90
31759;DHT22;36334;51.366;0.020;2022-09-02T03:12:35;17.20;99.90
31759;DHT22;36334;51.366;0.020;2022-09-02T03:15:22;17.20;99.90
31759;DHT22;36334;51.366;0.020;2022-09-02T03:18:10;17.20;99.90
31759;DHT22;36334;51.366;0.020;2022-09-02T03:20:57;17.20;99.90
31759;DHT22;36334;51.366;0.020;2022-09-02T03:23:45;17.10;99.90
31759;DHT22;36334;51.366;0.020;2022-09-02T03:26:31;17.20;99.90
31759;DHT22;36334;51.366;0.020;2022-09-02T03:29:18;17.20;99.90
31759;DHT22;36334;51.366;0.020;2022-09-02T03:32:04;17.20;99.90
31759;DHT22;36334;51.366;0.020;2022-09-02T03:34:53;17.20;99.90
31759;DHT22;36334;51.366;0.020;2022-09-02T03:37:39;17.10;99.90
31759;DHT22;36334;51.366;0.020;2022-09-02T03:40:27;17.10;99.90
31759;DHT22;36334;51.366;0.020;2022-09-02T03:43:13;17.20;99.90
31759;DHT22;36334;51.366;0.020;2022-09-02T03:46:00;17.10;99.90
31759;DHT22;36334;51.366;0.020;2022-09-02T03:48:47;17.10;99.90
31759;DHT22;36334;51.366;0.020;2022-09-02T03:51:39;17.20;99.90
31759;DHT22;36334;51.366;0.020;2022-09-02T03:54:26;17.10;99.90
31759;DHT22;36334;51.366;0.020;2022-09-02T03:57:15;17.20;99.90
31759;DHT22;36334;51.366;0.020;2022-09-02T04:00:04;17.20;99.90
31759;DHT22;36334;51.366;0.020;2022-09-02T04:02:59;17.10;99.90
31759;DHT22;36334;51.366;0.020;2022-09-02T04:05:51;17.10;99.90
31759;DHT22;36334;51.366;0.020;2022-09-02T04:08:41;17.10;99.90
31759;DHT22;36334;51.366;0.020;2022-09-02T04:11:29;17.10;99.90
31759;DHT22;36334;51.366;0.020;2022-09-02T04:14:17;17.10;99.90
31759;DHT22;36334;51.366;0.020;2022-09-02T04:17:03;17.10;99.90
31759;DHT22;36334;51.366;0.020;2022-09-02T04:19:49;17.10;99.90
31759;DHT22;36334;51.366;0.020;2022-09-02T04:22:36;17.10;99.90
31759;DHT22;36334;51.366;0.020;2022-09-02T04:25:22;17.10;99.90
31759;DHT22;36334;51.366;0.020;2022-09-02T04:28:13;17.00;99.90
31759;DHT22;36334;51.366;0.020;2022-09-02T04:31:03;17.10;99.90
31759;DHT22;36334;51.366;0.020;2022-09-02T04:33:49;17.00;99.90
31759;DHT22;36334;51.366;0.020;2022-09-02T04:36:36;17.00;99.90
31759;DHT22;36334;51.366;0.020;2022-09-02T04:39:25;17.00;99.90
31759;DHT22;36334;51.366;0.020;2022-09-02T04:42:12;17.00;99.90
31759;DHT22;36334;51.366;0.020;2022-09-02T04:44:59;17.00;99.90
31759;DHT22;36334;51.366;0.020;2022-09-02T04:47:45;17.00;99.90
31759;DHT22;36334;51.366;0.020;2022-09-02T04:50:35;17.00;99.90
31759;DHT22;36334;51.366;0.020;2022-09-02T04:53:22;17.10;99.90
31759;DHT22;36334;51.366;0.020;2022-09-02T04:56:13;17.00;99.90
31759;DHT22;36334;51.366;0.020;2022-09-02T04:59:00;17.00;99.90
31759;DHT22;36334;51.366;0.020;2022-09-02T05:01:47;17.10;99.90
31759;DHT22;36334;51.366;0.020;2022-09-02T05:04:39;17.10;99.90
31759;DHT22;36334;51.366;0.020;2022-09-02T05:07:35;17.10;99.90
31759;DHT22;36334;51.366;0.020;2022-09-02T05:10:22;17.10;99.90
31759;DHT22;36334;51.366;0.020;2022-09-02T05:13:09;17.10;99.90
31759;DHT22;36334;51.366;0.020;2022-09-02T05:15:56;17.10;99.90
31759;DHT22;36334;51.366;0.020;2022-09-02T05:18:43;17.00;99.90
31759;DHT22;36334;51.366;0.020;2022-09-02T05:21:30;17.00;99.90
31759;DHT22;36334;51.366;0.020;2022-09-02T05:24:19;17.00;99.90
31759;DHT22;36334;51.366;0.020;2022-09-02T05:27:13;17.00;99.90
31759;DHT22;36334;51.366;0.020;2022-09-02T05:30:03;17.10;99.90
31759;DHT22;36334;51.366;0.020;2022-09-02T05:32:52;17.10;99.90
31759;DHT22;36334;51.366;0.020;2022-09-02T05:35:42;17.10;99.90
31759;DHT22;36334;51.366;0.020;2022-09-02T05:38:34;17.10;99.90
31759;DHT22;36334;51.366;0.020;2022-09-02T05:41:22;17.10;99.90
31759;DHT22;36334;51.366;0.020;2022-09-02T05:44:12;17.10;99.90
31759;DHT22;36334;51.366;0.020;2022-09-02T05:46:58;17.10;99.90
31759;DHT22;36334;51.366;0.020;2022-09-02T05:49:45;17.20;99.90
31759;DHT22;36334;51.366;0.020;2022-09-02T05:52:33;17.20;99.90
31759;DHT22;36334;51.366;0.020;2022-09-02T05:55:20;17.20;99.90
31759;DHT22;36334;51.366;0.020;2022-09-02T05:58:07;17.20;99.90
31759;DHT22;36334;51.366;0.020;2022-09-02T06:00:54;17.30;99.90
31759;DHT22;36334;51.366;0.020;2022-09-02T06:03:40;17.30;99.90
31759;DHT22;36334;51.366;0.020;2022-09-02T06:06:28;17.30;99.90
31759;DHT22;36334;51.366;0.020;2022-09-02T06:09:18;17.30;99.90
31759;DHT22;36334;51.366;0.020;2022-09-02T06:12:07;17.40;99.90
31759;DHT22;36334;51.366;0.020;2022-09-02T06:14:54;17.40;99.90
31759;DHT22;36334;51.366;0.020;2022-09-02T06:17:41;17.40;99.90
31759;DHT22;36334;51.366;0.020;2022-09-02T06:20:28;17.40;99.90
31759;DHT22;36334;51.366;0.020;2022-09-02T06:23:18;17.40;99.90
31759;DHT22;36334;51.366;0.020;2022-09-02T06:26:08;17.50;99.90
31759;DHT22;36334;51.366;0.020;2022-09-02T06:28:55;17.50;99.90
31759;DHT22;36334;51.366;0.020;2022-09-02T06:31:42;17.50;99.90
31759;DHT22;36334;51.366;0.020;2022-09-02T06:34:30;17.50;99.90
31759;DHT22;36334;51.366;0.020;2022-09-02T06:37:16;17.50;99.90
31759;DHT22;36334;51.366;0.020;2022-09-02T06:40:03;17.50;99.90
31759;DHT22;36334;51.366;0.020;2022-09-02T06:42:50;17.60;99.90
31759;DHT22;36334;51.366;0.020;2022-09-02T06:45:48;17.60;99.90
31759;DHT22;36334;51.366;0.020;2022-09-02T06:48:34;17.70;99.90
31759;DHT22;36334;51.366;0.020;2022-09-02T06:51:32;17.70;99.90
31759;DHT22;36334;51.366;0.020;2022-09-02T06:54:21;17.70;99.90
31759;DHT22;36334;51.366;0.020;2022-09-02T06:57:12;17.80;99.90
31759;DHT22;36334;51.366;0.020;2022-09-02T07:00:00;17.80;99.90
31759;DHT22;36334;51.366;0.020;2022-09-02T07:02:50;17.80;99.90
31759;DHT22;36334;51.366;0.020;2022-09-02T07:06:06;17.80;99.90
31759;DHT22;36334;51.366;0.020;2022-09-02T07:09:07;17.80;99.90
31759;DHT22;36334;51.366;0.020;2022-09-02T07:11:53;17.80;99.90
31759;DHT22;36334;51.366;0.020;2022-09-02T07:14:42;17.80;99.90
31759;DHT22;36334;51.366;0.020;2022-09-02T07:17:31;17.80;99.90
31759;DHT22;36334;51.366;0.020;2022-09-02T07:20:21;17.90;99.90
31759;DHT22;36334;51.366;0.020;2022-09-02T07:23:12;17.90;99.90
31759;DHT22;36334;51.366;0.020;2022-09-02T07:26:00;17.90;99.90
31759;DHT22;36334;51.366;0.020;2022-09-02T07:28:51;18.10;99.90
31759;DHT22;36334;51.366;0.020;2022-09-02T07:31:42;18.10;99.90
31759;DHT22;36334;51.366;0.020;2022-09-02T07:34:32;18.20;99.90
31759;DHT22;36334;51.366;0.020;2022-09-02T07:37:19;18.30;99.90
31759;DHT22;36334;51.366;0.020;2022-09-02T07:40:11;18.40;99.90
31759;DHT22;36334;51.366;0.020;2022-09-02T07:43:00;18.40;99.90
31759;DHT22;36334;51.366;0.020;2022-09-02T07:45:47;18.50;99.90
31759;DHT22;36334;51.366;0.020;2022-09-02T07:48:38;18.60;99.90
31759;DHT22;36334;51.366;0.020;2022-09-02T07:51:25;18.70;99.90
31759;DHT22;36334;51.366;0.020;2022-09-02T07:54:20;18.80;99.90
31759;DHT22;36334;51.366;0.020;2022-09-02T07:57:08;18.90;99.90
31759;DHT22;36334;51.366;0.020;2022-09-02T07:59:55;19.00;99.90
31759;DHT22;36334;51.366;0.020;2022-09-02T08:02:42;19.00;99.90
31759;DHT22;36334;51.366;0.020;2022-09-02T08:05:35;19.10;99.90
31759;DHT22;36334;51.366;0.020;2022-09-02T08:08:22;19.20;99.90
31759;DHT22;36334;51.366;0.020;2022-09-02T08:11:11;19.30;99.90
31759;DHT22;36334;51.366;0.020;2022-09-02T08:13:57;19.30;99.90
31759;DHT22;36334;51.366;0.020;2022-09-02T08:16:46;19.50;99.90
31759;DHT22;36334;51.366;0.020;2022-09-02T08:19:33;19.50;99.90
31759;DHT22;36334;51.366;0.020;2022-09-02T08:22:19;19.60;99.90
31759;DHT22;36334;51.366;0.020;2022-09-02T08:25:06;19.70;99.90
31759;DHT22;36334;51.366;0.020;2022-09-02T08:27:53;19.70;99.90
31759;DHT22;36334;51.366;0.020;2022-09-02T08:30:40;19.80;99.90
31759;DHT22;36334;51.366;0.020;2022-09-02T08:33:27;19.90;99.90
31759;DHT22;36334;51.366;0.020;2022-09-02T08:36:13;20.00;99.90
31759;DHT22;36334;51.366;0.020;2022-09-02T08:39:02;20.10;99.90
31759;DHT22;36334;51.366;0.020;2022-09-02T08:42:21;20.10;99.90
31759;DHT22;36334;51.366;0.020;2022-09-02T08:48:21;20.30;99.90
31759;DHT22;36334;51.366;0.020;2022-09-02T08:51:25;20.30;99.90
31759;DHT22;36334;51.366;0.020;2022-09-02T08:54:28;20.40;99.90
31759;DHT22;36334;51.366;0.020;2022-09-02T08:57:15;20.40;99.90
31759;DHT22;36334;51.366;0.020;2022-09-02T09:00:03;20.40;99.90
31759;DHT22;36334;51.366;0.020;2022-09-02T09:03:09;20.40;99.90
31759;DHT22;36334;51.366;0.020;2022-09-02T09:09:44;20.50;99.90
31759;DHT22;36334;51.366;0.020;2022-09-02T09:18:43;20.80;99.90
31759;DHT22;36334;51.366;0.020;2022-09-02T09:21:31;21.00;99.90
31759;DHT22;36334;51.366;0.020;2022-09-02T09:24:29;21.10;99.90
31759;DHT22;36334;51.366;0.020;2022-09-02T09:27:22;21.20;99.90
31759;DHT22;36334;51.366;0.020;2022-09-02T09:30:09;21.30;99.90
31759;DHT22;36334;51.366;0.020;2022-09-02T09:33:00;21.50;99.90
31759;DHT22;36334;51.366;0.020;2022-09-02T09:35:50;21.50;99.90
31759;DHT22;36334;51.366;0.020;2022-09-02T09:38:36;21.60;99.90
31759;DHT22;36334;51.366;0.020;2022-09-02T09:41:23;21.60;99.90
31759;DHT22;36334;51.366;0.020;2022-09-02T09:44:09;21.70;99.90
31759;DHT22;36334;51.366;0.020;2022-09-02T09:47:37;21.80;99.90
31759;DHT22;36334;51.366;0.020;2022-09-02T09:50:16;21.80;99.90
31759;DHT22;36334;51.366;0.020;2022-09-02T09:56:24;21.90;99.90
31759;DHT22;36334;51.366;0.020;2022-09-02T09:59:39;22.00;99.90
31759;DHT22;36334;51.366;0.020;2022-09-02T10:02:27;22.00;99.90
31759;DHT22;36334;51.366;0.020;2022-09-02T10:05:28;22.20;99.90
31759;DHT22;36334;51.366;0.020;2022-09-02T10:11:04;22.30;99.90
31759;DHT22;36334;51.366;0.020;2022-09-02T10:14:07;22.40;99.90
31759;DHT22;36334;51.366;0.020;2022-09-02T10:20:21;22.60;99.90
31759;DHT22;36334;51.366;0.020;2022-09-02T10:35:15;22.80;99.90
31759;DHT22;36334;51.366;0.020;2022-09-02T10:44:31;23.10;99.90
31759;DHT22;36334;51.366;0.020;2022-09-02T10:47:37;23.10;99.90
31759;DHT22;36334;51.366;0.020;2022-09-02T10:56:26;23.10;99.90
31759;DHT22;36334;51.366;0.020;2022-09-02T11:03:01;23.20;99.90
31759;DHT22;36334;51.366;0.020;2022-09-02T11:05:52;23.30;99.90
31759;DHT22;36334;51.366;0.020;2022-09-02T11:09:05;23.40;99.90
31759;DHT22;36334;51.366;0.020;2022-09-02T11:12:06;23.50;99.90
31759;DHT22;36334;51.366;0.020;2022-09-02T11:15:19;23.50;99.90
31759;DHT22;36334;51.366;0.020;2022-09-02T11:27:38;23.70;99.90
31759;DHT22;36334;51.366;0.020;2022-09-02T11:30:38;23.80;99.90
31759;DHT22;36334;51.366;0.020;2022-09-02T11:33:57;23.90;99.90
31759;DHT22;36334;51.366;0.020;2022-09-02T11:36:50;24.00;99.90
31759;DHT22;36334;51.366;0.020;2022-09-02T11:50:17;24.50;99.90
31759;DHT22;36334;51.366;0.020;2022-09-02T11:55:28;24.70;99.90
31759;DHT22;36334;51.366;0.020;2022-09-02T11:58:37;24.90;99.90
31759;DHT22;36334;51.366;0.020;2022-09-02T12:01:36;25.10;99.90
31759;DHT22;36334;51.366;0.020;2022-09-02T12:04:29;25.20;99.90
31759;DHT22;36334;51.366;0.020;2022-09-02T12:07:48;25.30;99.90
31759;DHT22;36334;51.366;0.020;2022-09-02T12:13:42;25.20;99.90
31759;DHT22;36334;51.366;0.020;2022-09-02T12:16:36;25.10;99.90
31759;DHT22;36334;51.366;0.020;2022-09-02T12:19:27;25.00;99.90
31759;DHT22;36334;51.366;0.020;2022-09-02T12:25:01;24.80;99.90
31759;DHT22;36334;51.366;0.020;2022-09-02T12:27:48;24.80;99.90
31759;DHT22;36334;51.366;0.020;2022-09-02T12:34:00;24.70;99.90
31759;DHT22;36334;51.366;0.020;2022-09-02T12:42:33;24.70;99.90
31759;DHT22;36334;51.366;0.020;2022-09-02T12:45:30;24.60;99.90
31759;DHT22;36334;51.366;0.020;2022-09-02T12:48:19;24.50;99.90
31759;DHT22;36334;51.366;0.020;2022-09-02T12:54:47;24.50;99.90
31759;DHT22;36334;51.366;0.020;2022-09-02T12:57:39;24.50;99.90
31759;DHT22;36334;51.366;0.020;2022-09-02T13:03:38;24.60;99.90
31759;DHT22;36334;51.366;0.020;2022-09-02T13:06:52;24.60;99.90
31759;DHT22;36334;51.366;0.020;2022-09-02T13:28:46;24.40;99.90
31759;DHT22;36334;51.366;0.020;2022-09-02T13:31:37;24.40;99.90
31759;DHT22;36334;51.366;0.020;2022-09-02T13:34:23;24.40;99.90
31759;DHT22;36334;51.366;0.020;2022-09-02T13:38:21;24.30;99.90
31759;DHT22;36334;51.366;0.020;2022-09-02T13:40:44;24.20;99.90
31759;DHT22;36334;51.366;0.020;2022-09-02T13:43:31;24.20;99.90
31759;DHT22;36334;51.366;0.020;2022-09-02T13:46:18;24.00;99.90
31759;DHT22;36334;51.366;0.020;2022-09-02T13:49:04;24.00;99.90
31759;DHT22;36334;51.366;0.020;2022-09-02T13:51:52;23.90;99.90
31759;DHT22;36334;51.366;0.020;2022-09-02T13:54:41;23.80;99.90
31759;DHT22;36334;51.366;0.020;2022-09-02T13:57:29;23.80;99.90
31759;DHT22;36334;51.366;0.020;2022-09-02T14:00:26;23.70;99.90
31759;DHT22;36334;51.366;0.020;2022-09-02T14:03:16;23.60;99.90
31759;DHT22;36334;51.366;0.020;2022-09-02T14:06:03;23.60;99.90
31759;DHT22;36334;51.366;0.020;2022-09-02T14:08:55;23.60;99.90
31759;DHT22;36334;51.366;0.020;2022-09-02T14:11:46;23.50;99.90
31759;DHT22;36334;51.366;0.020;2022-09-02T14:14:33;23.40;99.90
31759;DHT22;36334;51.366;0.020;2022-09-02T14:17:22;23.40;99.90
31759;DHT22;36334;51.366;0.020;2022-09-02T14:20:16;23.30;99.90
31759;DHT22;36334;51.366;0.020;2022-09-02T14:23:04;23.30;99.90
31759;DHT22;36334;51.366;0.020;2022-09-02T14:25:55;23.30;99.90
31759;DHT22;36334;51.366;0.020;2022-09-02T14:28:49;23.40;99.90
31759;DHT22;36334;51.366;0.020;2022-09-02T14:31:36;23.40;99.90
31759;DHT22;36334;51.366;0.020;2022-09-02T14:34:35;23.40;99.90
31759;DHT22;36334;51.366;0.020;2022-09-02T14:37:26;23.40;99.90
31759;DHT22;36334;51.366;0.020;2022-09-02T14:40:13;23.30;99.90
31759;DHT22;36334;51.366;0.020;2022-09-02T14:42:59;23.20;99.90
31759;DHT22;36334;51.366;0.020;2022-09-02T14:45:49;23.10;99.90
31759;DHT22;36334;51.366;0.020;2022-09-02T14:48:37;23.00;99.90
31759;DHT22;36334;51.366;0.020;2022-09-02T14:51:53;22.90;99.90
31759;DHT22;36334;51.366;0.020;2022-09-02T14:54:43;22.80;99.90
31759;DHT22;36334;51.366;0.020;2022-09-02T14:57:34;22.70;99.90
31759;DHT22;36334;51.366;0.020;2022-09-02T15:00:22;22.70;99.90
31759;DHT22;36334;51.366;0.020;2022-09-02T15:03:13;22.70;99.90
31759;DHT22;36334;51.366;0.020;2022-09-02T15:06:01;22.70;99.90
31759;DHT22;36334;51.366;0.020;2022-09-02T15:08:47;22.80;99.90
31759;DHT22;36334;51.366;0.020;2022-09-02T15:11:39;22.80;99.90
31759;DHT22;36334;51.366;0.020;2022-09-02T15:14:27;22.80;99.90
31759;DHT22;36334;51.366;0.020;2022-09-02T15:17:15;22.90;99.90
31759;DHT22;36334;51.366;0.020;2022-09-02T15:20:02;22.90;99.90
31759;DHT22;36334;51.366;0.020;2022-09-02T15:22:49;22.80;99.90
31759;DHT22;36334;51.366;0.020;2022-09-02T15:25:38;22.80;99.90
31759;DHT22;36334;51.366;0.020;2022-09-02T15:28:25;22.80;99.90
31759;DHT22;36334;51.366;0.020;2022-09-02T15:31:11;22.70;99.90
31759;DHT22;36334;51.366;0.020;2022-09-02T15:33:57;22.70;99.90
31759;DHT22;36334;51.366;0.020;2022-09-02T15:36:43;22.70;99.90
31759;DHT22;36334;51.366;0.020;2022-09-02T15:39:32;22.70;99.90
31759;DHT22;36334;51.366;0.020;2022-09-02T15:42:18;22.70;99.90
31759;DHT22;36334;51.366;0.020;2022-09-02T15:45:06;22.70;99.90
31759;DHT22;36334;51.366;0.020;2022-09-02T15:47:56;22.70;99.90
31759;DHT22;36334;51.366;0.020;2022-09-02T15:50:43;22.60;99.90
31759;DHT22;36334;51.366;0.020;2022-09-02T15:53:31;22.60;99.90
31759;DHT22;36334;51.366;0.020;2022-09-02T15:56:20;22.60;99.90
31759;DHT22;36334;51.366;0.020;2022-09-02T15:59:12;22.70;99.90
31759;DHT22;36334;51.366;0.020;2022-09-02T16:01:59;22.70;99.90
31759;DHT22;36334;51.366;0.020;2022-09-02T16:04:46;22.90;99.90
31759;DHT22;36334;51.366;0.020;2022-09-02T16:07:32;23.00;99.90
31759;DHT22;36334;51.366;0.020;2022-09-02T16:10:18;23.30;99.90
31759;DHT22;36334;51.366;0.020;2022-09-02T16:13:04;23.50;99.90
31759;DHT22;36334;51.366;0.020;2022-09-02T16:15:59;23.80;99.90
31759;DHT22;36334;51.366;0.020;2022-09-02T16:18:51;24.10;99.90
31759;DHT22;36334;51.366;0.020;2022-09-02T16:21:38;24.40;99.90
31759;DHT22;36334;51.366;0.020;2022-09-02T16:24:25;24.50;99.90
31759;DHT22;36334;51.366;0.020;2022-09-02T16:27:12;24.70;99.90
31759;DHT22;36334;51.366;0.020;2022-09-02T16:30:00;24.70;99.90
31759;DHT22;36334;51.366;0.020;2022-09-02T16:32:47;24.70;99.90
31759;DHT22;36334;51.366;0.020;2022-09-02T16:35:36;24.70;99.90
31759;DHT22;36334;51.366;0.020;2022-09-02T16:38:23;24.60;99.90
31759;DHT22;36334;51.366;0.020;2022-09-02T16:44:09;24.40;99.90
31759;DHT22;36334;51.366;0.020;2022-09-02T16:46:56;24.20;99.90
31759;DHT22;36334;51.366;0.020;2022-09-02T16:49:41;24.10;99.90
31759;DHT22;36334;51.366;0.020;2022-09-02T16:52:28;23.90;99.90
31759;DHT22;36334;51.366;0.020;2022-09-02T16:55:17;23.80;99.90
31759;DHT22;36334;51.366;0.020;2022-09-02T16:58:03;23.70;99.90
31759;DHT22;36334;51.366;0.020;2022-09-02T17:00:49;23.60;99.90
31759;DHT22;36334;51.366;0.020;2022-09-02T17:03:35;23.50;99.90
31759;DHT22;36334;51.366;0.020;2022-09-02T17:06:21;23.40;99.90
31759;DHT22;36334;51.366;0.020;2022-09-02T17:09:10;23.30;99.90
31759;DHT22;36334;51.366;0.020;2022-09-02T17:11:56;23.20;99.90
31759;DHT22;36334;51.366;0.020;2022-09-02T17:14:43;23.10;99.90
31759;DHT22;36334;51.366;0.020;2022-09-02T17:17:31;23.00;99.90
31759;DHT22;36334;51.366;0.020;2022-09-02T17:20:21;22.90;99.90
31759;DHT22;36334;51.366;0.020;2022-09-02T17:23:07;22.80;99.90
31759;DHT22;36334;51.366;0.020;2022-09-02T17:25:53;22.70;99.90
31759;DHT22;36334;51.366;0.020;2022-09-02T17:28:40;22.60;99.90
31759;DHT22;36334;51.366;0.020;2022-09-02T17:31:32;22.40;99.90
31759;DHT22;36334;51.366;0.020;2022-09-02T17:34:19;22.30;99.90
31759;DHT22;36334;51.366;0.020;2022-09-02T17:37:05;22.30;99.90
31759;DHT22;36334;51.366;0.020;2022-09-02T17:39:51;22.40;99.90
31759;DHT22;36334;51.366;0.020;2022-09-02T17:42:38;22.40;99.90
31759;DHT22;36334;51.366;0.020;2022-09-02T17:45:24;22.40;99.90
31759;DHT22;36334;51.366;0.020;2022-09-02T17:48:10;22.40;99.90
31759;DHT22;36334;51.366;0.020;2022-09-02T17:51:16;22.40;99.90
31759;DHT22;36334;51.366;0.020;2022-09-02T17:54:05;22.40;99.90
31759;DHT22;36334;51.366;0.020;2022-09-02T18:00:26;22.20;99.90
31759;DHT22;36334;51.366;0.020;2022-09-02T18:03:38;22.10;99.90
31759;DHT22;36334;51.366;0.020;2022-09-02T18:06:40;22.00;99.90
31759;DHT22;36334;51.366;0.020;2022-09-02T18:09:30;22.00;99.90
31759;DHT22;36334;51.366;0.020;2022-09-02T18:12:20;21.90;99.90
31759;DHT22;36334;51.366;0.020;2022-09-02T18:15:07;21.80;99.90
31759;DHT22;36334;51.366;0.020;2022-09-02T18:17:53;21.80;99.90
31759;DHT22;36334;51.366;0.020;2022-09-02T18:20:41;21.70;99.90
31759;DHT22;36334;51.366;0.020;2022-09-02T18:26:58;21.50;99.90
31759;DHT22;36334;51.366;0.020;2022-09-02T18:30:01;21.40;99.90
31759;DHT22;36334;51.366;0.020;2022-09-02T18:33:06;21.30;99.90
31759;DHT22;36334;51.366;0.020;2022-09-02T18:39:04;21.10;99.90
31759;DHT22;36334;51.366;0.020;2022-09-02T18:47:57;20.80;99.90
31759;DHT22;36334;51.366;0.020;2022-09-02T18:50:53;20.80;99.90
31759;DHT22;36334;51.366;0.020;2022-09-02T18:53:45;20.70;99.90
31759;DHT22;36334;51.366;0.020;2022-09-02T18:56:35;20.60;99.90
31759;DHT22;36334;51.366;0.020;2022-09-02T18:59:33;20.60;99.90
31759;DHT22;36334;51.366;0.020;2022-09-02T19:05:20;20.40;99.90
31759;DHT22;36334;51.366;0.020;2022-09-02T19:08:12;20.40;99.90
31759;DHT22;36334;51.366;0.020;2022-09-02T19:11:18;20.30;99.90
31759;DHT22;36334;51.366;0.020;2022-09-02T19:16:54;20.20;99.90
31759;DHT22;36334;51.366;0.020;2022-09-02T19:19:42;20.20;99.90
31759;DHT22;36334;51.366;0.020;2022-09-02T19:22:29;20.20;99.90
31759;DHT22;36334;51.366;0.020;2022-09-02T19:25:25;20.10;99.90
31759;DHT22;36334;51.366;0.020;2022-09-02T19:28:14;20.10;99.90
31759;DHT22;36334;51.366;0.020;2022-09-02T19:31:02;20.10;99.90
31759;DHT22;36334;51.366;0.020;2022-09-02T19:33:50;20.00;99.90
31759;DHT22;36334;51.366;0.020;2022-09-02T19:36:40;20.00;99.90
31759;DHT22;36334;51.366;0.020;2022-09-02T19:39:27;20.00;99.90
31759;DHT22;36334;51.366;0.020;2022-09-02T19:42:14;19.90;99.90
31759;DHT22;36334;51.366;0.020;2022-09-02T19:45:03;19.90;99.90
31759;DHT22;36334;51.366;0.020;2022-09-02T19:47:49;19.90;99.90
31759;DHT22;36334;51.366;0.020;2022-09-02T19:50:54;19.90;99.90
31759;DHT22;36334;51.366;0.020;2022-09-02T19:53:41;19.80;99.90
31759;DHT22;36334;51.366;0.020;2022-09-02T19:56:30;19.80;99.90
31759;DHT22;36334;51.366;0.020;2022-09-02T19:59:16;19.80;99.90
31759;DHT22;36334;51.366;0.020;2022-09-02T20:02:02;19.80;99.90
31759;DHT22;36334;51.366;0.020;2022-09-02T20:04:52;19.80;99.90
31759;DHT22;36334;51.366;0.020;2022-09-02T20:07:39;19.70;99.90
31759;DHT22;36334;51.366;0.020;2022-09-02T20:10:25;19.70;99.90
31759;DHT22;36334;51.366;0.020;2022-09-02T20:13:15;19.70;99.90